createdAt,value
2023-04-18T00:00:01.310Z,100517.34
2023-04-18T00:00:05.407Z,100512.97
2023-04-18T00:00:37.562Z,100516.92
2023-04-18T00:00:43.948Z,100518.91
2023-04-18T00:00:48.126Z,100520.80
2023-04-18T00:00:54.222Z,100517.09
2023-04-18T00:01:01.341Z,100519.88
2023-04-18T00:01:05.588Z,100518.89
2023-04-18T00:01:37.621Z,100517.73
2023-04-18T00:01:44.029Z,100520.48
2023-04-18T00:01:48.270Z,100519.69
2023-04-18T00:01:54.346Z,100518.19
2023-04-18T00:02:01.611Z,100518.06
2023-04-18T00:02:05.641Z,100517.08
2023-04-18T00:02:37.864Z,100516.36
2023-04-18T00:02:44.264Z,100519.86
2023-04-18T00:02:48.497Z,100515.59
2023-04-18T00:02:54.636Z,100517.73
2023-04-18T00:03:04.162Z,100517.99
2023-04-18T00:03:05.866Z,100519.88
2023-04-18T00:03:37.993Z,100516.75
2023-04-18T00:03:44.267Z,100520.36
2023-04-18T00:03:48.829Z,100515.03
2023-04-18T00:03:54.618Z,100519.16
2023-04-18T00:04:01.709Z,100525.47
2023-04-18T00:04:05.943Z,100517.41
2023-04-18T00:04:37.858Z,100518.88
2023-04-18T00:04:44.367Z,100514.88
2023-04-18T00:04:48.658Z,100520.38
2023-04-18T00:04:54.704Z,100520.36
2023-04-18T00:05:01.853Z,100515.41
2023-04-18T00:05:05.881Z,100518.70
2023-04-18T00:05:37.825Z,100517.75
2023-04-18T00:05:44.347Z,100513.80
2023-04-18T00:05:48.508Z,100518.15
2023-04-18T00:05:54.561Z,100518.64
2023-04-18T00:06:01.784Z,100519.14
2023-04-18T00:06:06.004Z,100517.95
2023-04-18T00:06:37.817Z,100521.78
2023-04-18T00:06:44.382Z,100514.70
2023-04-18T00:06:48.559Z,100517.24
2023-04-18T00:06:54.595Z,100514.77
2023-04-18T00:07:01.873Z,100517.17
2023-04-18T00:07:06.140Z,100517.24
2023-04-18T00:07:37.937Z,100514.40
2023-04-18T00:07:44.441Z,100519.52
2023-04-18T00:07:48.584Z,100514.95
2023-04-18T00:07:54.687Z,100517.59
2023-04-18T00:08:01.952Z,100514.34
2023-04-18T00:08:06.186Z,100516.88
2023-04-18T00:08:38.020Z,100519.30
2023-04-18T00:08:44.455Z,100519.41
2023-04-18T00:08:48.662Z,100517.38
2023-04-18T00:08:54.816Z,100517.82
2023-04-18T00:09:02.011Z,100517.42
2023-04-18T00:09:06.377Z,100516.94
2023-04-18T00:09:38.155Z,100518.66
2023-04-18T00:09:44.705Z,100516.62
2023-04-18T00:09:48.750Z,100518.38
2023-04-18T00:09:54.820Z,100518.16
2023-04-18T00:10:02.097Z,100522.70
2023-04-18T00:10:06.351Z,100522.20
2023-04-18T00:10:38.194Z,100521.80
2023-04-18T00:10:44.536Z,100520.72
2023-04-18T00:10:48.832Z,100519.12
2023-04-18T00:10:54.827Z,100519.30
2023-04-18T00:11:02.115Z,100520.55
2023-04-18T00:11:06.504Z,100518.15
2023-04-18T00:11:38.303Z,100523.59
2023-04-18T00:11:44.554Z,100520.47
2023-04-18T00:11:48.882Z,100519.03
2023-04-18T00:11:54.847Z,100522.61
2023-04-18T00:12:02.124Z,100520.05
2023-04-18T00:12:06.657Z,100520.88
2023-04-18T00:12:38.402Z,100522.84
2023-04-18T00:12:44.638Z,100519.20
2023-04-18T00:12:48.985Z,100522.99
2023-04-18T00:12:54.880Z,100523.16
2023-04-18T00:13:02.132Z,100517.22
2023-04-18T00:13:06.710Z,100519.22
2023-04-18T00:13:38.570Z,100524.05
2023-04-18T00:13:44.681Z,100519.80
2023-04-18T00:13:48.995Z,100517.97
2023-04-18T00:13:54.939Z,100520.54
2023-04-18T00:14:02.123Z,100518.89
2023-04-18T00:14:06.786Z,100518.39
2023-04-18T00:14:38.639Z,100524.62
2023-04-18T00:14:44.811Z,100520.61
2023-04-18T00:14:49.122Z,100526.47
2023-04-18T00:14:54.931Z,100522.75
2023-04-18T00:15:02.193Z,100520.28
2023-04-18T00:15:06.797Z,100518.61
2023-04-18T00:15:38.742Z,100526.62
2023-04-18T00:15:44.911Z,100521.75
2023-04-18T00:15:49.249Z,100522.52
2023-04-18T00:15:55.070Z,100522.68
2023-04-18T00:16:02.318Z,100523.51
2023-04-18T00:16:06.860Z,100521.25
2023-04-18T00:16:38.889Z,100520.94
2023-04-18T00:16:44.957Z,100517.78
2023-04-18T00:16:49.339Z,100521.98
2023-04-18T00:16:55.208Z,100523.55
2023-04-18T00:17:02.466Z,100519.22
2023-04-18T00:17:07.085Z,100520.05
2023-04-18T00:17:38.947Z,100526.80
2023-04-18T00:17:45.032Z,100526.47
2023-04-18T00:17:49.463Z,100526.62
2023-04-18T00:17:55.206Z,100527.11
2023-04-18T00:18:02.539Z,100530.24
2023-04-18T00:18:07.138Z,100526.90
2023-04-18T00:18:38.945Z,100523.27
2023-04-18T00:18:45.020Z,100520.30
2023-04-18T00:18:49.551Z,100523.59
2023-04-18T00:18:55.287Z,100519.90
2023-04-18T00:19:02.505Z,100523.86
2023-04-18T00:19:07.130Z,100521.41
2023-04-18T00:19:38.997Z,100520.89
2023-04-18T00:19:45.066Z,100523.36
2023-04-18T00:19:49.557Z,100525.23
2023-04-18T00:19:55.385Z,100523.15
2023-04-18T00:20:02.553Z,100522.54
2023-04-18T00:20:07.209Z,100521.17
2023-04-18T00:20:39.030Z,100520.47
2023-04-18T00:20:45.158Z,100522.73
2023-04-18T00:20:49.679Z,100521.90
2023-04-18T00:20:55.415Z,100524.75
2023-04-18T00:21:02.560Z,100522.54
2023-04-18T00:21:07.263Z,100521.73
2023-04-18T00:21:39.142Z,100522.23
2023-04-18T00:21:45.322Z,100524.31
2023-04-18T00:21:49.697Z,100522.77
2023-04-18T00:21:55.443Z,100521.29
2023-04-18T00:22:02.706Z,100523.98
2023-04-18T00:22:07.272Z,100522.61
2023-04-18T00:22:39.231Z,100524.02
2023-04-18T00:22:45.329Z,100521.56
2023-04-18T00:22:49.708Z,100521.29
2023-04-18T00:22:55.486Z,100520.80
2023-04-18T00:23:02.729Z,100522.06
2023-04-18T00:23:07.302Z,100523.05
2023-04-18T00:23:39.345Z,100520.17
2023-04-18T00:23:45.454Z,100519.52
2023-04-18T00:23:49.849Z,100518.37
2023-04-18T00:23:55.576Z,100522.77
2023-04-18T00:24:02.757Z,100521.05
2023-04-18T00:24:07.306Z,100522.77
2023-04-18T00:24:39.488Z,100519.69
2023-04-18T00:24:45.584Z,100520.93
2023-04-18T00:24:50.008Z,100517.70
2023-04-18T00:24:55.668Z,100519.97
2023-04-18T00:25:02.885Z,100519.08
2023-04-18T00:25:07.307Z,100519.63
2023-04-18T00:25:39.624Z,100519.85
2023-04-18T00:25:45.694Z,100518.25
2023-04-18T00:25:50.128Z,100518.60
2023-04-18T00:25:55.755Z,100520.14
2023-04-18T00:26:02.931Z,100523.11
2023-04-18T00:26:07.484Z,100517.39
2023-04-18T00:26:39.679Z,100518.75
2023-04-18T00:26:45.766Z,100519.90
2023-04-18T00:26:50.225Z,100519.42
2023-04-18T00:26:55.789Z,100520.58
2023-04-18T00:27:02.992Z,100520.25
2023-04-18T00:27:07.506Z,100516.02
2023-04-18T00:27:39.705Z,100517.88
2023-04-18T00:27:45.907Z,100519.97
2023-04-18T00:27:50.279Z,100517.05
2023-04-18T00:27:55.847Z,100516.44
2023-04-18T00:28:03.114Z,100518.75
2023-04-18T00:28:07.602Z,100519.57
2023-04-18T00:28:39.775Z,100519.24
2023-04-18T00:28:46.029Z,100512.67
2023-04-18T00:28:50.320Z,100515.63
2023-04-18T00:28:55.929Z,100515.78
2023-04-18T00:29:03.246Z,100518.91
2023-04-18T00:29:07.643Z,100518.20
2023-04-18T00:29:39.766Z,100519.73
2023-04-18T00:29:46.105Z,100516.89
2023-04-18T00:29:50.445Z,100517.34
2023-04-18T00:29:56.052Z,100519.20
2023-04-18T00:30:03.385Z,100517.45
2023-04-18T00:30:07.721Z,100518.41
2023-04-18T00:30:39.861Z,100517.41
2023-04-18T00:30:46.224Z,100515.85
2023-04-18T00:30:50.616Z,100522.28
2023-04-18T00:30:56.124Z,100521.45
2023-04-18T00:31:03.559Z,100516.07
2023-04-18T00:31:07.887Z,100518.66
2023-04-18T00:31:39.891Z,100519.29
2023-04-18T00:31:46.205Z,100520.21
2023-04-18T00:31:50.585Z,100513.50
2023-04-18T00:31:56.208Z,100513.12
2023-04-18T00:32:03.643Z,100516.47
2023-04-18T00:32:07.906Z,100515.00
2023-04-18T00:32:40.132Z,100514.67
2023-04-18T00:32:46.476Z,100515.72
2023-04-18T00:32:50.683Z,100517.53
2023-04-18T00:32:56.398Z,100515.77
2023-04-18T00:33:03.782Z,100521.60
2023-04-18T00:33:08.015Z,100517.75
2023-04-18T00:33:40.098Z,100516.82
2023-04-18T00:33:46.471Z,100515.27
2023-04-18T00:33:50.781Z,100513.12
2023-04-18T00:33:56.361Z,100517.36
2023-04-18T00:34:03.908Z,100516.43
2023-04-18T00:34:08.145Z,100517.16
2023-04-18T00:34:40.234Z,100519.09
2023-04-18T00:34:46.575Z,100517.25
2023-04-18T00:34:50.875Z,100515.56
2023-04-18T00:34:56.456Z,100511.94
2023-04-18T00:35:04.042Z,100521.12
2023-04-18T00:35:08.222Z,100515.91
2023-04-18T00:35:40.362Z,100514.58
2023-04-18T00:35:46.680Z,100516.57
2023-04-18T00:35:50.966Z,100515.89
2023-04-18T00:35:56.495Z,100516.57
2023-04-18T00:36:04.139Z,100513.60
2023-04-18T00:36:08.342Z,100513.70
2023-04-18T00:36:40.456Z,100519.02
2023-04-18T00:36:46.778Z,100515.53
2023-04-18T00:36:51.035Z,100520.91
2023-04-18T00:36:56.600Z,100518.81
2023-04-18T00:37:04.175Z,100515.38
2023-04-18T00:37:08.491Z,100519.75
2023-04-18T00:37:40.575Z,100518.72
2023-04-18T00:37:46.879Z,100518.98
2023-04-18T00:37:51.104Z,100514.27
2023-04-18T00:37:56.670Z,100517.84
2023-04-18T00:38:04.170Z,100515.42
2023-04-18T00:38:08.499Z,100515.33
2023-04-18T00:38:40.688Z,100514.48
2023-04-18T00:38:46.983Z,100516.81
2023-04-18T00:38:51.212Z,100519.12
2023-04-18T00:38:56.729Z,100514.39
2023-04-18T00:39:04.282Z,100516.48
2023-04-18T00:39:08.529Z,100515.44
2023-04-18T00:39:40.706Z,100518.41
2023-04-18T00:39:47.074Z,100518.08
2023-04-18T00:39:51.218Z,100521.04
2023-04-18T00:39:56.878Z,100522.30
2023-04-18T00:40:04.336Z,100517.58
2023-04-18T00:40:08.580Z,100517.44
2023-04-18T00:40:40.819Z,100514.19
2023-04-18T00:40:47.113Z,100516.08
2023-04-18T00:40:51.310Z,100521.52
2023-04-18T00:40:56.968Z,100519.97
2023-04-18T00:41:04.450Z,100517.84
2023-04-18T00:41:08.731Z,100517.19
2023-04-18T00:41:40.853Z,100515.27
2023-04-18T00:41:47.118Z,100516.48
2023-04-18T00:41:51.435Z,100518.89
2023-04-18T00:41:57.092Z,100516.42
2023-04-18T00:42:04.563Z,100520.88
2023-04-18T00:42:08.776Z,100518.41
2023-04-18T00:42:40.938Z,100517.53
2023-04-18T00:42:47.156Z,100516.75
2023-04-18T00:42:51.562Z,100526.22
2023-04-18T00:42:57.115Z,100517.64
2023-04-18T00:43:04.655Z,100518.54
2023-04-18T00:43:08.870Z,100514.73
2023-04-18T00:43:40.983Z,100520.19
2023-04-18T00:43:47.167Z,100516.54
2023-04-18T00:43:51.702Z,100518.05
2023-04-18T00:43:57.141Z,100515.67
2023-04-18T00:44:04.696Z,100516.50
2023-04-18T00:44:08.989Z,100517.82
2023-04-18T00:44:41.123Z,100522.83
2023-04-18T00:44:47.169Z,100522.99
2023-04-18T00:44:51.764Z,100522.66
2023-04-18T00:44:57.197Z,100522.59
2023-04-18T00:45:04.815Z,100521.23
2023-04-18T00:45:09.113Z,100524.31
2023-04-18T00:45:41.224Z,100525.95
2023-04-18T00:45:47.323Z,100521.48
2023-04-18T00:45:51.807Z,100519.45
2023-04-18T00:45:57.290Z,100523.13
2023-04-18T00:46:04.833Z,100516.98
2023-04-18T00:46:09.177Z,100523.86
2023-04-18T00:46:41.398Z,100518.02
2023-04-18T00:46:47.369Z,100518.70
2023-04-18T00:46:51.895Z,100521.98
2023-04-18T00:46:57.331Z,100519.02
2023-04-18T00:47:04.852Z,100515.73
2023-04-18T00:47:09.211Z,100514.89
2023-04-18T00:47:41.430Z,100515.62
2023-04-18T00:47:47.391Z,100520.45
2023-04-18T00:47:52.078Z,100515.58
2023-04-18T00:47:57.490Z,100520.45
2023-04-18T00:48:04.962Z,100516.21
2023-04-18T00:48:09.307Z,100513.41
2023-04-18T00:48:41.499Z,100519.34
2023-04-18T00:48:47.475Z,100521.93
2023-04-18T00:48:51.990Z,100520.19
2023-04-18T00:48:57.430Z,100526.88
2023-04-18T00:49:05.018Z,100517.03
2023-04-18T00:49:09.334Z,100517.22
2023-04-18T00:49:41.559Z,100524.90
2023-04-18T00:49:47.588Z,100518.14
2023-04-18T00:49:52.041Z,100520.84
2023-04-18T00:49:57.558Z,100523.41
2023-04-18T00:50:05.066Z,100518.87
2023-04-18T00:50:09.474Z,100522.50
2023-04-18T00:50:41.717Z,100517.55
2023-04-18T00:50:47.671Z,100521.60
2023-04-18T00:50:52.068Z,100522.00
2023-04-18T00:50:57.673Z,100519.67
2023-04-18T00:51:05.070Z,100518.14
2023-04-18T00:51:09.469Z,100525.44
2023-04-18T00:51:41.819Z,100515.91
2023-04-18T00:51:47.674Z,100517.03
2023-04-18T00:51:52.120Z,100519.34
2023-04-18T00:51:57.722Z,100518.63
2023-04-18T00:52:05.118Z,100515.06
2023-04-18T00:52:09.570Z,100519.69
2023-04-18T00:52:41.954Z,100516.61
2023-04-18T00:52:47.676Z,100517.64
2023-04-18T00:52:52.288Z,100520.28
2023-04-18T00:52:57.737Z,100515.45
2023-04-18T00:53:05.206Z,100520.70
2023-04-18T00:53:09.685Z,100515.95
2023-04-18T00:53:42.042Z,100518.80
2023-04-18T00:53:47.725Z,100517.15
2023-04-18T00:53:52.326Z,100517.42
2023-04-18T00:53:57.755Z,100517.24
2023-04-18T00:54:05.249Z,100519.51
2023-04-18T00:54:09.804Z,100520.77
2023-04-18T00:54:42.162Z,100517.97
2023-04-18T00:54:47.813Z,100514.40
2023-04-18T00:54:52.361Z,100517.06
2023-04-18T00:54:57.814Z,100515.58
2023-04-18T00:55:05.298Z,100518.19
2023-04-18T00:55:09.828Z,100516.89
2023-04-18T00:55:42.197Z,100521.61
2023-04-18T00:55:47.832Z,100522.33
2023-04-18T00:55:52.465Z,100518.09
2023-04-18T00:55:57.875Z,100517.16
2023-04-18T00:56:05.297Z,100521.11
2023-04-18T00:56:09.844Z,100522.77
2023-04-18T00:56:42.267Z,100517.96
2023-04-18T00:56:47.896Z,100523.06
2023-04-18T00:56:52.637Z,100521.14
2023-04-18T00:56:57.905Z,100517.47
2023-04-18T00:57:05.408Z,100521.47
2023-04-18T00:57:09.928Z,100522.02
2023-04-18T00:57:42.342Z,100519.73
2023-04-18T00:57:47.907Z,100514.93
2023-04-18T00:57:52.723Z,100520.53
2023-04-18T00:57:57.961Z,100515.75
2023-04-18T00:58:05.448Z,100515.45
2023-04-18T00:58:09.967Z,100519.40
2023-04-18T00:58:42.356Z,100515.65
2023-04-18T00:58:47.917Z,100522.12
2023-04-18T00:58:52.742Z,100523.06
2023-04-18T00:58:57.956Z,100521.42
2023-04-18T00:59:05.457Z,100522.95
2023-04-18T00:59:10.105Z,100520.10
2023-04-18T00:59:42.493Z,100516.36
2023-04-18T00:59:47.932Z,100520.65
2023-04-18T00:59:52.801Z,100523.56
2023-04-18T00:59:58.044Z,100518.50
2023-04-18T01:00:05.648Z,100518.06
2023-04-18T01:00:10.214Z,100510.21
2023-04-18T01:00:42.524Z,100517.23
2023-04-18T01:00:47.954Z,100518.39
2023-04-18T01:00:52.852Z,100513.80
2023-04-18T01:00:58.079Z,100512.15
2023-04-18T01:01:05.755Z,100515.00
2023-04-18T01:01:10.316Z,100514.84
2023-04-18T01:01:42.627Z,100513.77
2023-04-18T01:01:48.145Z,100516.98
2023-04-18T01:01:53.097Z,100517.14
2023-04-18T01:01:58.284Z,100518.18
2023-04-18T01:02:05.835Z,100515.23
2023-04-18T01:02:10.399Z,100515.40
2023-04-18T01:02:42.795Z,100518.09
2023-04-18T01:02:48.320Z,100513.44
2023-04-18T01:02:53.067Z,100516.66
2023-04-18T01:02:58.313Z,100514.34
2023-04-18T01:03:06.012Z,100516.98
2023-04-18T01:03:10.730Z,100515.24
2023-04-18T01:03:43.019Z,100515.12
2023-04-18T01:03:48.469Z,100516.23
2023-04-18T01:03:53.173Z,100514.42
2023-04-18T01:03:58.387Z,100518.21
2023-04-18T01:04:05.899Z,100519.25
2023-04-18T01:04:10.667Z,100523.25
2023-04-18T01:04:42.918Z,100514.82
2023-04-18T01:04:48.335Z,100519.60
2023-04-18T01:04:53.096Z,100515.15
2023-04-18T01:04:58.314Z,100517.17
2023-04-18T01:05:05.954Z,100517.29
2023-04-18T01:05:10.647Z,100517.34
2023-04-18T01:05:42.941Z,100511.53
2023-04-18T01:05:48.473Z,100512.19
2023-04-18T01:05:53.154Z,100516.95
2023-04-18T01:05:58.338Z,100512.52
2023-04-18T01:06:06.098Z,100512.02
2023-04-18T01:06:10.647Z,100517.06
2023-04-18T01:06:42.964Z,100518.05
2023-04-18T01:06:48.567Z,100513.76
2023-04-18T01:06:53.218Z,100517.72
2023-04-18T01:06:58.362Z,100513.76
2023-04-18T01:07:06.233Z,100514.25
2023-04-18T01:07:10.761Z,100518.88
2023-04-18T01:07:43.073Z,100517.72
2023-04-18T01:07:48.620Z,100520.92
2023-04-18T01:07:53.254Z,100517.93
2023-04-18T01:07:58.370Z,100513.61
2023-04-18T01:08:06.298Z,100517.62
2023-04-18T01:08:10.869Z,100519.09
2023-04-18T01:08:43.178Z,100519.03
2023-04-18T01:08:48.690Z,100517.55
2023-04-18T01:08:53.271Z,100515.62
2023-04-18T01:08:58.430Z,100513.10
2023-04-18T01:09:06.382Z,100518.54
2023-04-18T01:09:10.892Z,100516.02
2023-04-18T01:09:43.277Z,100519.30
2023-04-18T01:09:48.816Z,100513.52
2023-04-18T01:09:53.334Z,100521.88
2023-04-18T01:09:58.514Z,100517.15
2023-04-18T01:10:06.521Z,100515.66
2023-04-18T01:10:10.975Z,100516.39
2023-04-18T01:10:43.326Z,100514.34
2023-04-18T01:10:48.932Z,100517.66
2023-04-18T01:10:53.415Z,100519.46
2023-04-18T01:10:58.549Z,100517.81
2023-04-18T01:11:06.629Z,100518.47
2023-04-18T01:11:10.972Z,100520.02
2023-04-18T01:11:43.432Z,100512.87
2023-04-18T01:11:49.013Z,100514.25
2023-04-18T01:11:53.486Z,100512.16
2023-04-18T01:11:58.686Z,100511.66
2023-04-18T01:12:06.764Z,100516.61
2023-04-18T01:12:11.067Z,100516.33
2023-04-18T01:12:43.457Z,100514.37
2023-04-18T01:12:49.096Z,100516.98
2023-04-18T01:12:53.585Z,100516.33
2023-04-18T01:12:58.810Z,100513.36
2023-04-18T01:13:06.805Z,100517.05
2023-04-18T01:13:11.117Z,100512.20
2023-04-18T01:13:43.487Z,100510.44
2023-04-18T01:13:49.161Z,100509.97
2023-04-18T01:13:53.650Z,100512.20
2023-04-18T01:13:58.830Z,100512.16
2023-04-18T01:14:06.865Z,100509.80
2023-04-18T01:14:11.522Z,100509.96
2023-04-18T01:14:43.561Z,100517.27
2023-04-18T01:14:49.214Z,100515.73
2023-04-18T01:14:53.752Z,100514.30
2023-04-18T01:15:03.589Z,100518.47
2023-04-18T01:15:06.892Z,100515.83
2023-04-18T01:15:11.259Z,100516.98
2023-04-18T01:15:43.666Z,100514.37
2023-04-18T01:15:49.343Z,100521.05
2023-04-18T01:15:53.873Z,100521.83
2023-04-18T01:16:03.771Z,100518.30
2023-04-18T01:16:07.085Z,100518.16
2023-04-18T01:16:11.427Z,100515.41
2023-04-18T01:16:43.645Z,100516.84
2023-04-18T01:16:49.361Z,100518.70
2023-04-18T01:16:53.881Z,100517.81
2023-04-18T01:17:03.767Z,100516.07
2023-04-18T01:17:07.140Z,100517.66
2023-04-18T01:17:11.489Z,100520.94
2023-04-18T01:17:43.788Z,100518.75
2023-04-18T01:17:49.578Z,100517.78
2023-04-18T01:17:53.992Z,100515.30
2023-04-18T01:18:04.026Z,100517.27
2023-04-18T01:18:07.216Z,100518.28
2023-04-18T01:18:11.580Z,100515.53
2023-04-18T01:18:43.815Z,100517.62
2023-04-18T01:18:49.561Z,100516.80
2023-04-18T01:18:54.025Z,100515.64
2023-04-18T01:19:03.959Z,100513.17
2023-04-18T01:19:07.361Z,100515.15
2023-04-18T01:19:11.665Z,100516.61
2023-04-18T01:19:43.941Z,100515.12
2023-04-18T01:19:49.637Z,100513.77
2023-04-18T01:19:54.045Z,100514.21
2023-04-18T01:20:04.095Z,100513.95
2023-04-18T01:20:07.349Z,100513.11
2023-04-18T01:20:11.766Z,100512.31
2023-04-18T01:20:44.020Z,100512.69
2023-04-18T01:20:49.761Z,100516.92
2023-04-18T01:20:54.048Z,100508.83
2023-04-18T01:21:04.185Z,100515.41
2023-04-18T01:21:07.407Z,100513.44
2023-04-18T01:21:11.877Z,100515.41
2023-04-18T01:21:44.104Z,100510.97
2023-04-18T01:21:49.808Z,100509.67
2023-04-18T01:21:54.080Z,100511.53
2023-04-18T01:22:04.223Z,100516.81
2023-04-18T01:22:07.539Z,100514.22
2023-04-18T01:22:11.993Z,100513.56
2023-04-18T01:22:44.164Z,100513.62
2023-04-18T01:22:49.888Z,100516.10
2023-04-18T01:22:54.177Z,100512.53
2023-04-18T01:23:04.216Z,100511.21
2023-04-18T01:23:07.683Z,100515.02
2023-04-18T01:23:12.025Z,100512.03
2023-04-18T01:23:44.177Z,100514.67
2023-04-18T01:23:49.921Z,100513.59
2023-04-18T01:23:54.295Z,100518.58
2023-04-18T01:24:04.312Z,100520.11
2023-04-18T01:24:07.772Z,100514.91
2023-04-18T01:24:12.476Z,100514.67
2023-04-18T01:24:44.224Z,100513.70
2023-04-18T01:24:49.952Z,100517.00
2023-04-18T01:24:54.306Z,100516.16
2023-04-18T01:25:04.400Z,100517.05
2023-04-18T01:25:07.812Z,100517.83
2023-04-18T01:25:12.169Z,100516.81
2023-04-18T01:25:44.348Z,100514.13
2023-04-18T01:25:49.978Z,100519.36
2023-04-18T01:25:54.367Z,100516.39
2023-04-18T01:26:04.533Z,100520.17
2023-04-18T01:26:07.820Z,100519.19
2023-04-18T01:26:12.190Z,100519.94
2023-04-18T01:26:44.343Z,100512.66
2023-04-18T01:26:50.016Z,100516.95
2023-04-18T01:26:54.514Z,100514.95
2023-04-18T01:27:04.645Z,100516.72
2023-04-18T01:27:07.877Z,100513.83
2023-04-18T01:27:12.208Z,100516.02
2023-04-18T01:27:44.423Z,100512.84
2023-04-18T01:27:50.036Z,100515.85
2023-04-18T01:27:54.615Z,100514.53
2023-04-18T01:28:04.771Z,100518.33
2023-04-18T01:28:07.979Z,100514.70
2023-04-18T01:28:12.271Z,100517.28
2023-04-18T01:28:44.524Z,100514.66
2023-04-18T01:28:50.131Z,100517.99
2023-04-18T01:28:54.683Z,100512.56
2023-04-18T01:29:04.795Z,100516.34
2023-04-18T01:29:08.062Z,100519.09
2023-04-18T01:29:12.280Z,100521.73
2023-04-18T01:29:44.673Z,100515.20
2023-04-18T01:29:50.207Z,100514.55
2023-04-18T01:29:54.717Z,100512.61
2023-04-18T01:30:04.852Z,100514.98
2023-04-18T01:30:08.129Z,100514.38
2023-04-18T01:30:12.370Z,100516.96
2023-04-18T01:30:44.774Z,100509.20
2023-04-18T01:30:50.313Z,100511.16
2023-04-18T01:30:54.858Z,100515.12
2023-04-18T01:31:05.011Z,100509.81
2023-04-18T01:31:08.220Z,100514.08
2023-04-18T01:31:12.558Z,100512.29
2023-04-18T01:31:44.921Z,100513.88
2023-04-18T01:31:50.384Z,100511.58
2023-04-18T01:31:54.965Z,100512.88
2023-04-18T01:32:05.111Z,100509.88
2023-04-18T01:32:08.249Z,100510.08
2023-04-18T01:32:12.542Z,100518.34
2023-04-18T01:32:44.988Z,100510.77
2023-04-18T01:32:50.460Z,100508.59
2023-04-18T01:32:55.105Z,100508.88
2023-04-18T01:33:05.288Z,100506.97
2023-04-18T01:33:08.390Z,100510.77
2023-04-18T01:33:12.591Z,100509.59
2023-04-18T01:33:44.984Z,100512.51
2023-04-18T01:33:50.528Z,100513.94
2023-04-18T01:33:55.184Z,100515.36
2023-04-18T01:34:05.284Z,100513.39
2023-04-18T01:34:08.423Z,100511.09
2023-04-18T01:34:12.843Z,100513.23
2023-04-18T01:34:45.015Z,100510.53
2023-04-18T01:34:50.603Z,100510.25
2023-04-18T01:34:55.225Z,100514.97
2023-04-18T01:35:05.410Z,100510.53
2023-04-18T01:35:08.463Z,100514.44
2023-04-18T01:35:12.703Z,100510.20
2023-04-18T01:35:45.138Z,100512.73
2023-04-18T01:35:50.672Z,100507.59
2023-04-18T01:35:55.228Z,100512.08
2023-04-18T01:36:05.495Z,100509.16
2023-04-18T01:36:08.477Z,100509.05
2023-04-18T01:36:12.796Z,100511.19
2023-04-18T01:36:45.190Z,100513.89
2023-04-18T01:36:50.711Z,100511.15
2023-04-18T01:36:55.264Z,100507.92
2023-04-18T01:37:05.640Z,100512.98
2023-04-18T01:37:08.603Z,100510.51
2023-04-18T01:37:12.918Z,100511.50
2023-04-18T01:37:45.360Z,100508.63
2023-04-18T01:37:50.813Z,100507.64
2023-04-18T01:37:55.382Z,100508.70
2023-04-18T01:38:05.723Z,100508.70
2023-04-18T01:38:08.731Z,100509.12
2023-04-18T01:38:13.024Z,100505.91
2023-04-18T01:38:45.380Z,100510.77
2023-04-18T01:38:50.946Z,100508.32
2023-04-18T01:38:55.478Z,100511.12
2023-04-18T01:39:05.740Z,100507.81
2023-04-18T01:39:08.749Z,100510.77
2023-04-18T01:39:13.087Z,100510.77
2023-04-18T01:39:45.490Z,100507.71
2023-04-18T01:39:50.965Z,100512.59
2023-04-18T01:39:55.566Z,100510.34
2023-04-18T01:40:05.888Z,100514.56
2023-04-18T01:40:08.831Z,100511.59
2023-04-18T01:40:13.124Z,100513.59
2023-04-18T01:40:45.520Z,100507.97
2023-04-18T01:40:51.087Z,100509.12
2023-04-18T01:40:55.582Z,100509.80
2023-04-18T01:41:05.906Z,100512.92
2023-04-18T01:41:08.864Z,100511.44
2023-04-18T01:41:13.145Z,100510.23
2023-04-18T01:41:45.558Z,100511.98
2023-04-18T01:41:51.138Z,100508.53
2023-04-18T01:41:55.696Z,100510.27
2023-04-18T01:42:05.938Z,100509.78
2023-04-18T01:42:08.933Z,100512.53
2023-04-18T01:42:13.168Z,100511.87
2023-04-18T01:42:45.626Z,100511.58
2023-04-18T01:42:51.252Z,100509.55
2023-04-18T01:42:55.746Z,100510.86
2023-04-18T01:43:06.040Z,100510.86
2023-04-18T01:43:09.006Z,100513.00
2023-04-18T01:43:13.246Z,100508.59
2023-04-18T01:43:45.649Z,100510.20
2023-04-18T01:43:51.383Z,100511.42
2023-04-18T01:43:55.844Z,100510.53
2023-04-18T01:44:06.057Z,100511.84
2023-04-18T01:44:09.075Z,100507.14
2023-04-18T01:44:13.500Z,100510.12
2023-04-18T01:44:45.753Z,100511.77
2023-04-18T01:44:51.494Z,100510.95
2023-04-18T01:44:55.939Z,100509.14
2023-04-18T01:45:06.216Z,100510.78
2023-04-18T01:45:09.100Z,100511.23
2023-04-18T01:45:13.283Z,100509.47
2023-04-18T01:45:45.831Z,100512.33
2023-04-18T01:45:51.618Z,100509.58
2023-04-18T01:45:56.071Z,100509.62
2023-04-18T01:46:06.366Z,100509.70
2023-04-18T01:46:09.271Z,100510.03
2023-04-18T01:46:13.486Z,100509.18
2023-04-18T01:46:45.882Z,100505.39
2023-04-18T01:46:51.748Z,100508.70
2023-04-18T01:46:56.264Z,100508.52
2023-04-18T01:47:06.369Z,100507.06
2023-04-18T01:47:09.284Z,100506.40
2023-04-18T01:47:13.551Z,100509.02
2023-04-18T01:47:45.972Z,100504.75
2023-04-18T01:47:51.785Z,100508.36
2023-04-18T01:47:56.301Z,100507.39
2023-04-18T01:48:06.501Z,100512.59
2023-04-18T01:48:09.284Z,100506.33
2023-04-18T01:48:13.626Z,100507.77
2023-04-18T01:48:45.893Z,100506.09
2023-04-18T01:48:51.817Z,100504.95
2023-04-18T01:48:56.329Z,100510.38
2023-04-18T01:49:06.581Z,100505.11
2023-04-18T01:49:09.300Z,100506.92
2023-04-18T01:49:13.658Z,100508.26
2023-04-18T01:49:46.036Z,100509.89
2023-04-18T01:49:51.948Z,100512.47
2023-04-18T01:49:56.412Z,100507.25
2023-04-18T01:50:06.667Z,100507.58
2023-04-18T01:50:09.333Z,100512.63
2023-04-18T01:50:13.774Z,100507.27
2023-04-18T01:50:46.169Z,100510.88
2023-04-18T01:50:51.979Z,100507.64
2023-04-18T01:50:56.424Z,100505.77
2023-04-18T01:51:41.606Z,100501.78
2023-04-18T01:51:41.818Z,100502.73
2023-04-18T01:51:42.029Z,100502.85
2023-04-18T01:51:47.618Z,100507.21
2023-04-18T01:51:52.107Z,100503.78
2023-04-18T01:51:56.536Z,100503.49
2023-04-18T01:52:41.749Z,100509.24
2023-04-18T01:52:41.971Z,100507.77
2023-04-18T01:52:42.166Z,100507.16
2023-04-18T01:52:47.708Z,100504.19
2023-04-18T01:52:52.236Z,100504.84
2023-04-18T01:52:56.646Z,100507.59
2023-04-18T01:53:41.857Z,100505.77
2023-04-18T01:53:42.069Z,100506.59
2023-04-18T01:53:42.284Z,100508.34
2023-04-18T01:53:47.725Z,100503.69
2023-04-18T01:53:52.260Z,100506.70
2023-04-18T01:53:56.780Z,100506.38
2023-04-18T01:54:41.910Z,100507.47
2023-04-18T01:54:42.123Z,100509.02